Etusivu
METAR-TAF:

METAR-TAF

Lentoasemat :

Berlevåg, Norja

Leveyspiiri: 70-52N, Pituuspiiri: 029-02E, korkeus merenpinnasta: 1 m

Tämänhetkinen sää

Tämä raportti tehtiin 13 minuuttia sitten, kello 10.50 UTC
Tuuli 25 kn etelästä/lounaasta
Lämpötila 2°C
Kosteus 69%
Ilmanpaine 1020 hPa
Näkyvyys 10 km tai enemmän
ei pilviä alle 1500 m:ssä eikä cumulonimbus-pilviä

METAR: ENBV 211050Z 21025KT CAVOK 02/M03 Q1020

Aika: 12:03 (11:03 UTC)

Sääennuste

Tämä raportti tehtiin 3 tuntia ja 3 minuuttia sitten, kello 08.00 UTC
Ennuste voimassa 21. päivästä klo 09 UTC - 21. päivään klo 18 UTC
Tuuli 12 kn lounaasta
Näkyvyys 10 km tai enemmän
Hajanaisia pilviä 5000 ft:n korkeudessa
Ajoittain
21. päivästä klo 09 UTC - 21. päivään klo 18 UTC
Tuuli 20 kn lounaasta puuskistuen 30 kn:hen

TAF: ENBV 210800Z 2109/2118 23012KT 9999 SCT050 TEMPO 2109/2118 22020G30KT

Säähavainnot ja -ennusteet yli 4000 lentoasemalta (METAR- ja TAF-raportit).

Käytössä olevat sääasemat on merkitty karttaan keltaisilla ja punaisilla pisteillä.

Aseta hiiri pisteen päälle nähdäksesi sääaseman nimen.

Klikkaa sitten nähdäksesi säähavainnot ja -ennusteet.

Kartan vaihtaminen: klikkaa mustalla rastilla varustettuja vihreitä pisteitä, niin voit zoomata sisään; viivalla varustettua vihreää pistettä, niin voit zoomata ulos tai vihreitä nuolia, niin pääset viereisille kartoille.


METAR-TAF: